Time;durP1;ratioP1;P1;durP2;ratioP2;P2;SDS_P1;SDS_P2;PMS_P1;PMS_P2;Temp;Humidity;BMP_temperature;BMP_pressure;BME280_temperature;BME280_humidity;BME280_pressure;Samples;Min_cycle;Max_cycle;Signal;HPM_P1;HPM_P2
2022/01/07 00:00:42;;;;;;;25.95;10.15;;;-1.20;93.20;;;;;;5068557;28;20037;-77
2022/01/07 00:03:11;;;;;;;24.90;9.50;;;-1.20;93.10;;;;;;5053611;28;20033;-77
2022/01/07 00:05:38;;;;;;;23.58;9.43;;;-1.20;92.90;;;;;;5052060;28;20195;-77
2022/01/07 00:08:08;;;;;;;26.05;9.48;;;-1.20;92.80;;;;;;5052159;28;20029;-77
2022/01/07 00:10:36;;;;;;;15.57;7.70;;;-1.20;92.70;;;;;;5053528;28;20018;-76
2022/01/07 00:13:04;;;;;;;18.50;7.57;;;-1.10;92.70;;;;;;5068391;28;20033;-77
2022/01/07 00:15:33;;;;;;;19.50;6.90;;;-1.10;92.60;;;;;;5051845;28;20021;-78
2022/01/07 00:18:01;;;;;;;20.10;8.10;;;-1.10;92.60;;;;;;5035795;28;20044;-77
2022/01/07 00:20:28;;;;;;;19.23;7.40;;;-1.10;92.50;;;;;;5053273;28;20024;-77
2022/01/07 00:22:55;;;;;;;17.33;7.05;;;-1.10;92.40;;;;;;5048289;28;20025;-77
2022/01/07 00:25:24;;;;;;;24.45;7.80;;;-1.10;92.30;;;;;;5048421;28;20025;-77
2022/01/07 00:27:54;;;;;;;21.25;7.60;;;-1.10;92.20;;;;;;5068011;28;20518;-77
2022/01/07 00:30:23;;;;;;;19.35;8.52;;;-1.10;92.50;;;;;;5068864;28;20028;-77
2022/01/07 00:32:52;;;;;;;22.48;7.95;;;-1.10;92.10;;;;;;5053333;28;20063;-76
2022/01/07 00:35:35;;;;;;;19.20;7.72;;;-1.00;92.00;;;;;;5056607;28;20390;-76
2022/01/07 00:38:11;;;;;;;19.42;7.40;;;-1.00;91.80;;;;;;5072468;28;20061;-76
2022/01/07 00:40:54;;;;;;;23.77;7.15;;;-1.00;91.90;;;;;;5057383;28;20032;-77
2022/01/07 00:43:22;;;;;;;18.27;7.22;;;-1.00;91.40;;;;;;5072497;28;20128;-77
2022/01/07 00:45:49;;;;;;;17.42;7.78;;;-1.00;91.40;;;;;;5072467;28;20025;-76
2022/01/07 00:48:16;;;;;;;24.15;8.15;;;-1.00;91.30;;;;;;5056724;28;20067;-76
2022/01/07 00:50:43;;;;;;;18.77;7.15;;;-1.00;91.10;;;;;;5056874;28;20030;-77
2022/01/07 00:53:10;;;;;;;17.55;6.93;;;-1.00;91.00;;;;;;5055123;28;20433;-76
2022/01/07 00:55:37;;;;;;;19.35;8.52;;;-1.00;90.90;;;;;;5047400;28;20079;-77
2022/01/07 00:58:05;;;;;;;16.05;6.53;;;-1.00;90.70;;;;;;5036642;28;20462;-77
2022/01/07 01:00:32;;;;;;;20.75;7.90;;;-1.00;90.60;;;;;;5051980;28;20033;-78
2022/01/07 01:02:59;;;;;;;24.25;8.10;;;-1.00;90.40;;;;;;5067811;28;20033;-78
2022/01/07 01:05:30;;;;;;;27.35;9.18;;;-1.00;90.30;;;;;;5056705;28;20085;-77
2022/01/07 01:07:57;;;;;;;23.40;9.40;;;-1.00;90.30;;;;;;5055444;28;20044;-77
2022/01/07 01:10:31;;;;;;;20.50;7.63;;;-1.00;90.50;;;;;;5055138;28;20070;-76
2022/01/07 01:12:58;;;;;;;19.50;8.23;;;-1.00;90.50;;;;;;5055502;28;20032;-77
2022/01/07 01:15:27;;;;;;;17.70;7.55;;;-1.00;90.70;;;;;;5055164;28;20025;-77
2022/01/07 01:17:58;;;;;;;18.25;6.68;;;-1.00;90.90;;;;;;5055110;28;20032;-77
2022/01/07 01:20:25;;;;;;;18.25;6.03;;;-1.00;90.90;;;;;;5038683;28;20025;-77
2022/01/07 01:22:52;;;;;;;16.08;6.22;;;-1.00;90.80;;;;;;5056344;28;20025;-76
2022/01/07 01:25:20;;;;;;;10.77;5.15;;;-1.00;90.40;;;;;;5056363;28;20025;-76
2022/01/07 01:27:48;;;;;;;11.60;4.47;;;-1.00;89.90;;;;;;5056170;28;20025;-77
2022/01/07 01:30:27;;;;;;;16.70;5.55;;;-1.00;88.80;;;;;;5055935;28;20469;-78
2022/01/07 01:32:56;;;;;;;13.80;4.75;;;-0.90;87.60;;;;;;5052263;28;20079;-77
2022/01/07 01:35:23;;;;;;;11.63;3.90;;;-0.90;87.40;;;;;;5038457;28;20389;-77
2022/01/07 01:37:49;;;;;;;8.82;4.22;;;-0.90;86.30;;;;;;5055825;28;20045;-77
2022/01/07 01:40:17;;;;;;;17.63;5.60;;;-0.90;85.90;;;;;;5056025;28;20470;-77
2022/01/07 01:42:53;;;;;;;17.42;4.60;;;-0.90;85.60;;;;;;5038339;28;20115;-77
2022/01/07 01:45:20;;;;;;;10.95;4.55;;;-0.90;84.90;;;;;;5055030;28;20104;-76
2022/01/07 01:47:47;;;;;;;11.07;4.32;;;-0.90;84.40;;;;;;5055859;28;20101;-77
2022/01/07 01:50:16;;;;;;;15.63;5.43;;;-0.90;83.80;;;;;;5055771;28;20071;-77
2022/01/07 01:52:53;;;;;;;12.88;4.63;;;-0.90;83.30;;;;;;5052797;28;20025;-76
2022/01/07 01:55:22;;;;;;;18.10;4.70;;;-0.90;83.30;;;;;;5055632;28;20025;-77
2022/01/07 01:57:50;;;;;;;14.68;4.57;;;-1.00;83.50;;;;;;5053976;28;20148;-77
2022/01/07 02:00:19;;;;;;;12.50;4.10;;;-1.00;83.60;;;;;;5055832;28;20036;-76
2022/01/07 02:02:45;;;;;;;11.95;4.57;;;-1.00;83.60;;;;;;5055602;28;20079;-76
2022/01/07 02:05:12;;;;;;;13.85;4.53;;;-1.10;83.40;;;;;;5037689;28;20041;-76
2022/01/07 02:07:41;;;;;;;18.13;5.72;;;-1.00;83.30;;;;;;5054168;28;20032;-76
2022/01/07 02:10:13;;;;;;;13.23;4.45;;;-1.10;83.20;;;;;;5055507;28;20104;-78
2022/01/07 02:12:40;;;;;;;12.30;4.68;;;-1.10;83.40;;;;;;5038228;28;20078;-77
2022/01/07 02:15:08;;;;;;;14.70;4.72;;;-1.10;83.60;;;;;;5037740;28;20025;-76
2022/01/07 02:17:35;;;;;;;16.83;4.72;;;-1.10;83.70;;;;;;5051624;28;20037;-77
2022/01/07 02:20:00;;;;;;;11.45;4.65;;;-1.20;84.00;;;;;;5053891;28;20017;-77
2022/01/07 02:22:28;;;;;;;9.30;4.13;;;-1.20;84.20;;;;;;5053748;28;20020;-77
2022/01/07 02:24:55;;;;;;;15.57;3.95;;;-1.20;84.20;;;;;;5054756;28;20022;-77
2022/01/07 02:27:26;;;;;;;11.88;4.10;;;-1.30;84.10;;;;;;5053746;28;20028;-76
2022/01/07 02:29:54;;;;;;;12.05;4.90;;;-1.30;84.40;;;;;;5055240;28;20039;-77
2022/01/07 02:32:22;;;;;;;10.35;4.60;;;-1.30;84.30;;;;;;5054457;28;20159;-77
2022/01/07 02:34:50;;;;;;;13.55;5.13;;;-1.30;84.30;;;;;;5054928;28;20425;-76
2022/01/07 02:37:18;;;;;;;11.93;4.85;;;-1.30;84.70;;;;;;5055316;28;20029;-77
2022/01/07 02:39:49;;;;;;;13.70;4.25;;;-1.30;85.00;;;;;;5054860;28;20028;-77
2022/01/07 02:42:17;;;;;;;13.35;5.32;;;-1.30;85.00;;;;;;5053536;28;20025;-77
2022/01/07 02:44:43;;;;;;;8.82;4.38;;;-1.30;85.10;;;;;;5053488;28;20021;-77
2022/01/07 02:47:09;;;;;;;13.50;5.45;;;-1.30;85.30;;;;;;5053452;28;20036;-76
2022/01/07 02:49:36;;;;;;;12.02;5.07;;;-1.30;85.50;;;;;;5053254;28;20078;-77
2022/01/07 02:52:04;;;;;;;12.55;5.47;;;-1.30;85.70;;;;;;5053280;28;20028;-77
2022/01/07 02:54:31;;;;;;;11.52;5.15;;;-1.40;85.70;;;;;;5053128;28;20009;-77
2022/01/07 02:56:59;;;;;;;12.63;5.80;;;-1.40;85.70;;;;;;5054077;28;20048;-77
2022/01/07 02:59:25;;;;;;;16.80;5.90;;;-1.40;85.80;;;;;;5054451;28;20467;-76
2022/01/07 03:01:53;;;;;;;11.45;5.45;;;-1.40;85.70;;;;;;5054340;28;20029;-77
2022/01/07 03:04:19;;;;;;;14.48;4.97;;;-1.40;86.00;;;;;;5053122;28;20028;-77
2022/01/07 03:06:47;;;;;;;12.77;5.28;;;-1.50;86.30;;;;;;5053140;28;20041;-77
2022/01/07 03:09:15;;;;;;;13.70;5.10;;;-1.50;86.30;;;;;;5052922;28;20017;-77
2022/01/07 03:11:41;;;;;;;15.23;5.70;;;-1.50;86.50;;;;;;5054356;28;20600;-78
2022/01/07 03:14:06;;;;;;;13.30;5.68;;;-1.50;86.40;;;;;;5057790;28;20037;-77
2022/01/07 03:16:46;;;;;;;11.02;5.55;;;-1.50;86.40;;;;;;5057161;28;20104;-77
2022/01/07 03:19:13;;;;;;;13.95;5.38;;;-1.50;86.60;;;;;;5054035;28;20017;-77
2022/01/07 03:21:40;;;;;;;13.80;4.93;;;-1.50;87.00;;;;;;5054518;28;20371;-77
2022/01/07 03:24:07;;;;;;;7.63;4.20;;;-1.50;87.50;;;;;;5052815;28;20017;-77
2022/01/07 03:26:35;;;;;;;7.55;4.03;;;-1.50;87.60;;;;;;5052708;28;20071;-78
2022/01/07 03:29:02;;;;;;;7.53;4.30;;;-1.50;87.60;;;;;;5053870;28;20025;-78
2022/01/07 03:31:29;;;;;;;9.30;4.72;;;-1.50;87.80;;;;;;5052735;28;20029;-78
2022/01/07 03:33:56;;;;;;;8.48;4.35;;;-1.50;87.90;;;;;;5052571;28;20071;-77
2022/01/07 03:36:24;;;;;;;9.57;4.35;;;-1.50;88.10;;;;;;5052588;28;20021;-77
2022/01/07 03:38:51;;;;;;;11.52;4.85;;;-1.50;88.30;;;;;;5052493;28;20063;-78
2022/01/07 03:41:19;;;;;;;9.75;4.53;;;-1.50;88.50;;;;;;5053422;28;20037;-77
2022/01/07 03:43:45;;;;;;;10.63;5.30;;;-1.50;88.90;;;;;;5052504;28;20072;-77
2022/01/07 03:46:13;;;;;;;15.57;5.50;;;-1.50;89.30;;;;;;5035985;28;20071;-77
2022/01/07 03:48:39;;;;;;;11.25;4.70;;;-1.50;89.50;;;;;;5053957;28;20017;-76
2022/01/07 03:51:04;;;;;;;10.75;5.35;;;-1.50;89.60;;;;;;5052687;28;20032;-77
2022/01/07 03:53:30;;;;;;;12.90;4.95;;;-1.60;89.90;;;;;;5053713;28;20025;-77
2022/01/07 03:55:57;;;;;;;14.82;5.75;;;-1.60;90.10;;;;;;5035244;28;20057;-77
2022/01/07 03:58:23;;;;;;;10.15;4.97;;;-1.60;90.60;;;;;;5035876;28;20035;-77
2022/01/07 04:00:49;;;;;;;13.50;5.35;;;-1.60;90.40;;;;;;5053721;28;20108;-77
2022/01/07 04:03:31;;;;;;;8.88;4.30;;;-1.60;90.50;;;;;;5052204;28;20501;-77
2022/01/07 04:05:56;;;;;;;;;;;-1.60;90.70;;;;;;5053906;28;20057;-76
2022/01/07 04:08:23;;;;;;;13.32;5.63;;;-1.60;90.90;;;;;;5068942;28;19928;-76
2022/01/07 04:10:51;;;;;;;14.40;5.03;;;-1.60;91.00;;;;;;5052055;28;20352;-78
2022/01/07 04:13:19;;;;;;;13.25;5.20;;;-1.60;91.10;;;;;;5053100;28;20025;-78
2022/01/07 04:15:45;;;;;;;12.00;5.53;;;-1.60;91.20;;;;;;5053521;28;20075;-78
2022/01/07 04:18:11;;;;;;;9.85;4.65;;;-1.70;91.50;;;;;;5053755;28;20492;-77
2022/01/07 04:20:39;;;;;;;14.57;5.07;;;-1.60;91.80;;;;;;5052443;28;20037;-77
2022/01/07 04:23:19;;;;;;;11.70;5.47;;;-1.60;91.70;;;;;;5053515;28;20032;-78
2022/01/07 04:25:44;;;;;;;13.68;5.22;;;-1.60;91.70;;;;;;5035974;28;20033;-77
2022/01/07 04:28:12;;;;;;;14.02;6.00;;;-1.60;91.70;;;;;;5053374;28;20047;-77
2022/01/07 04:30:44;;;;;;;12.35;5.85;;;-1.60;91.70;;;;;;5051851;28;20386;-78
2022/01/07 04:33:25;;;;;;;17.25;6.63;;;-1.60;91.70;;;;;;5035397;28;20437;-77
2022/01/07 04:35:57;;;;;;;11.93;5.60;;;-1.50;91.80;;;;;;5053440;28;20047;-77
2022/01/07 04:38:23;;;;;;;14.10;5.23;;;-1.50;91.90;;;;;;5053269;28;20028;-77
2022/01/07 04:40:50;;;;;;;14.20;6.07;;;-1.50;91.90;;;;;;5051985;28;20391;-78
2022/01/07 04:43:21;;;;;;;13.60;5.97;;;-1.50;92.00;;;;;;5052024;28;20052;-77
2022/01/07 04:45:48;;;;;;;16.73;7.15;;;-1.50;92.00;;;;;;5035402;28;20035;-77
2022/01/07 04:48:15;;;;;;;14.30;6.40;;;-1.50;91.90;;;;;;5052982;28;20017;-77
2022/01/07 04:50:43;;;;;;;13.32;7.22;;;-1.50;92.00;;;;;;5052148;28;20025;-77
2022/01/07 04:53:09;;;;;;;17.80;6.50;;;-1.50;92.00;;;;;;5052995;28;20471;-76
2022/01/07 04:55:45;;;;;;;12.57;5.88;;;-1.50;92.00;;;;;;5051189;28;20171;-78
2022/01/07 04:58:27;;;;;;;10.52;5.85;;;-1.40;92.10;;;;;;5051565;28;20379;-78
2022/01/07 05:00:54;;;;;;;16.33;6.72;;;-1.40;92.10;;;;;;5052988;28;20029;-77
2022/01/07 05:03:21;;;;;;;13.52;8.10;;;-1.40;92.10;;;;;;5051964;28;20070;-77
2022/01/07 05:05:58;;;;;;;17.88;7.32;;;-1.40;92.10;;;;;;5052949;28;20032;-77
2022/01/07 05:08:25;;;;;;;18.35;7.95;;;-1.40;92.00;;;;;;5053084;28;20029;-77
2022/01/07 05:10:53;;;;;;;17.70;6.95;;;-1.40;91.90;;;;;;5053061;28;20082;-78
2022/01/07 05:13:20;;;;;;;13.13;6.55;;;-1.40;91.90;;;;;;5052915;28;20039;-77
2022/01/07 05:15:47;;;;;;;14.88;6.82;;;-1.40;92.00;;;;;;5053104;28;20025;-77
2022/01/07 05:18:14;;;;;;;13.00;6.80;;;-1.40;92.10;;;;;;5051912;28;20108;-78
2022/01/07 05:20:42;;;;;;;15.73;6.32;;;-1.40;92.10;;;;;;5052738;28;20029;-76
2022/01/07 05:23:08;;;;;;;19.20;7.95;;;-1.40;92.20;;;;;;5055124;28;20478;-78
2022/01/07 05:25:37;;;;;;;16.73;6.53;;;-1.50;92.20;;;;;;5055126;28;20094;-78
2022/01/07 05:28:05;;;;;;;17.00;7.40;;;-1.40;92.30;;;;;;5056439;28;20074;-77
2022/01/07 05:30:40;;;;;;;19.88;7.35;;;-1.50;92.30;;;;;;5056103;28;20525;-76
2022/01/07 05:33:06;;;;;;;20.80;7.32;;;-1.50;92.40;;;;;;5056049;28;20048;-77
2022/01/07 05:35:46;;;;;;;12.80;6.30;;;-1.50;92.50;;;;;;5056383;28;20109;-78
2022/01/07 05:38:14;;;;;;;16.42;6.53;;;-1.50;92.50;;;;;;5052268;28;20550;-78
2022/01/07 05:40:42;;;;;;;15.43;6.57;;;-1.40;92.50;;;;;;5055173;28;20108;-77
2022/01/07 05:43:10;;;;;;;18.58;6.72;;;-1.50;92.40;;;;;;5056288;28;20029;-77
2022/01/07 05:45:37;;;;;;;16.30;7.00;;;-1.50;92.80;;;;;;5038350;28;20025;-76
2022/01/07 05:48:03;;;;;;;11.15;6.63;;;-1.40;92.40;;;;;;5054401;28;20075;-78
2022/01/07 05:50:31;;;;;;;14.35;7.25;;;-1.40;92.30;;;;;;5056025;28;20017;-77
2022/01/07 05:52:56;;;;;;;17.02;7.82;;;-1.40;92.30;;;;;;5056021;28;20025;-78
2022/01/07 05:55:24;;;;;;;13.82;6.57;;;-1.40;92.30;;;;;;5055812;28;20051;-77
2022/01/07 05:57:51;;;;;;;13.13;7.18;;;-1.40;92.20;;;;;;5055673;28;20510;-78
2022/01/07 06:00:18;;;;;;;12.55;7.97;;;-1.40;92.30;;;;;;5057367;28;20039;-77
2022/01/07 06:02:46;;;;;;;14.30;6.80;;;-1.40;92.40;;;;;;5055467;28;20029;-77
2022/01/07 06:05:14;;;;;;;19.45;6.38;;;-1.40;92.40;;;;;;5055905;28;20021;-78
2022/01/07 06:07:42;;;;;;;13.52;5.93;;;-1.40;92.50;;;;;;5038056;28;20056;-78
2022/01/07 06:10:09;;;;;;;13.63;5.90;;;-1.40;92.70;;;;;;5054096;28;20044;-79
2022/01/07 06:12:36;;;;;;;13.90;6.03;;;-1.40;92.80;;;;;;5054574;28;20033;-77
2022/01/07 06:15:05;;;;;;;16.90;8.35;;;-1.40;92.80;;;;;;5055331;28;20021;-76
2022/01/07 06:17:32;;;;;;;16.30;8.13;;;-1.40;92.80;;;;;;5053944;28;20102;-78
2022/01/07 06:19:59;;;;;;;16.38;8.23;;;-1.40;92.80;;;;;;5053859;28;20017;-78
2022/01/07 06:22:24;;;;;;;19.33;7.65;;;-1.40;92.80;;;;;;5055211;28;20449;-77
2022/01/07 06:24:58;;;;;;;16.90;7.80;;;-1.40;92.80;;;;;;5053710;28;20371;-78
2022/01/07 06:27:25;;;;;;;20.92;7.57;;;-1.40;92.80;;;;;;5053824;28;20033;-77
2022/01/07 06:29:52;;;;;;;24.77;11.07;;;-1.40;92.90;;;;;;5054164;28;20025;-75
2022/01/07 06:32:19;;;;;;;19.45;8.00;;;-1.40;92.90;;;;;;5053303;28;20025;-77
2022/01/07 06:34:44;;;;;;;22.45;8.98;;;-1.40;93.00;;;;;;5055278;28;20053;-78
2022/01/07 06:37:12;;;;;;;14.02;7.72;;;-1.40;93.00;;;;;;5053611;28;20223;-77
2022/01/07 06:39:39;;;;;;;16.45;7.82;;;-1.40;93.10;;;;;;5053515;28;20040;-77
2022/01/07 06:42:07;;;;;;;17.15;8.52;;;-1.40;93.20;;;;;;5053272;28;20540;-77
2022/01/07 06:44:33;;;;;;;20.20;8.50;;;-1.40;93.20;;;;;;5053230;28;20021;-77
2022/01/07 06:47:01;;;;;;;17.80;8.07;;;-1.30;93.30;;;;;;5054405;28;20029;-76
2022/01/07 06:49:28;;;;;;;16.52;7.32;;;-1.30;93.30;;;;;;5055177;28;20095;-78
2022/01/07 06:51:54;;;;;;;18.10;9.35;;;-1.30;93.20;;;;;;5052995;28;20032;-77
2022/01/07 06:54:20;;;;;;;23.95;9.57;;;-1.30;93.20;;;;;;5052899;28;20017;-77
2022/01/07 06:56:47;;;;;;;33.00;11.38;;;-1.30;93.10;;;;;;5054098;28;20053;-77
2022/01/07 06:59:15;;;;;;;18.42;8.02;;;-1.20;93.10;;;;;;5053072;28;20025;-78
2022/01/07 07:01:46;;;;;;;15.38;7.70;;;-1.20;93.20;;;;;;5054538;28;20055;-76
2022/01/07 07:04:14;;;;;;;12.43;5.90;;;-1.20;93.20;;;;;;5052297;28;20033;-78
2022/01/07 07:06:43;;;;;;;14.15;6.97;;;-1.30;93.20;;;;;;5069298;28;20065;-77
2022/01/07 07:09:13;;;;;;;16.45;7.38;;;-1.20;93.20;;;;;;5066240;28;20022;-77
2022/01/07 07:11:39;;;;;;;16.75;6.82;;;-1.20;93.20;;;;;;5064696;28;20187;-78
2022/01/07 07:14:07;;;;;;;12.18;6.57;;;-1.30;93.20;;;;;;5042926;28;20110;-78
2022/01/07 07:16:35;;;;;;;16.55;7.85;;;-1.20;93.20;;;;;;5054199;28;20082;-78
2022/01/07 07:19:04;;;;;;;14.48;7.63;;;-1.20;93.20;;;;;;5069595;28;20032;-79
2022/01/07 07:21:30;;;;;;;13.25;7.97;;;-1.20;93.20;;;;;;5066603;28;20040;-77
2022/01/07 07:23:58;;;;;;;15.85;7.03;;;-1.20;93.10;;;;;;5034142;28;20026;-77
2022/01/07 07:26:25;;;;;;;18.38;8.35;;;-1.10;93.20;;;;;;5032264;28;20084;-78
2022/01/07 07:28:51;;;;;;;18.42;7.45;;;-1.10;93.00;;;;;;5045351;28;20099;-77
2022/01/07 07:31:19;;;;;;;14.38;7.20;;;-1.00;93.00;;;;;;5053566;28;20108;-76
2022/01/07 07:36:31;;;;;;;17.40;8.52;;;-0.80;92.70;;;;;;5053621;28;20032;-76
2022/01/07 07:39:08;;;;;;;15.82;8.40;;;-0.70;92.50;;;;;;5052127;28;20075;-78
2022/01/07 07:41:49;;;;;;;18.63;8.27;;;-0.60;92.60;;;;;;5053394;28;20025;-77
2022/01/07 07:44:17;;;;;;;22.77;8.68;;;-0.50;92.10;;;;;;5055113;28;20039;-77
2022/01/07 07:46:45;;;;;;;20.83;9.40;;;-0.40;91.70;;;;;;5065128;28;20026;-78
2022/01/07 07:49:13;;;;;;;18.58;9.88;;;-0.40;91.30;;;;;;5033304;28;20382;-77
2022/01/07 07:51:39;;;;;;;18.52;7.63;;;-0.30;91.00;;;;;;5033507;28;20036;-78
2022/01/07 07:54:08;;;;;;;18.95;9.60;;;-0.20;90.90;;;;;;5034292;28;20017;-79
2022/01/07 07:56:41;;;;;;;19.65;9.07;;;-0.10;90.90;;;;;;5035524;28;20077;-78
2022/01/07 07:59:09;;;;;;;21.33;9.68;;;0.00;90.60;;;;;;5034970;28;20475;-83
2022/01/07 08:01:36;;;;;;;22.63;9.10;;;0.00;90.30;;;;;;5035933;28;20107;-79
2022/01/07 08:04:06;;;;;;;20.38;8.55;;;0.10;90.30;;;;;;5033966;28;20037;-77
2022/01/07 08:06:34;;;;;;;16.75;8.95;;;0.20;90.00;;;;;;5033622;28;20495;-78
2022/01/07 08:09:02;;;;;;;19.75;8.93;;;0.20;89.50;;;;;;5033429;28;20022;-77
2022/01/07 08:11:33;;;;;;;18.05;8.45;;;0.30;89.40;;;;;;5033393;28;20609;-77
2022/01/07 08:16:56;;;;;;;18.23;8.10;;;0.40;89.10;;;;;;5033746;28;20489;-77
2022/01/07 08:19:22;;;;;;;16.67;6.82;;;0.40;88.30;;;;;;5052982;28;20032;-78
2022/01/07 08:21:50;;;;;;;18.55;7.40;;;0.50;88.30;;;;;;5053156;28;20021;-77
2022/01/07 08:24:17;;;;;;;13.20;7.13;;;0.50;87.80;;;;;;5053191;28;20444;-78
2022/01/07 08:26:44;;;;;;;17.85;6.53;;;0.60;87.60;;;;;;5052996;28;20105;-77
2022/01/07 08:29:14;;;;;;;15.73;7.72;;;0.60;87.50;;;;;;5052750;28;20494;-77
2022/01/07 08:36:56;;;;;;;13.32;5.40;;;0.70;86.50;;;;;;5066306;28;20086;-78
2022/01/07 08:39:25;;;;;;;13.82;5.90;;;0.80;86.20;;;;;;5051269;28;20025;-77
2022/01/07 08:41:52;;;;;;;14.02;5.60;;;0.80;85.80;;;;;;5052150;28;20173;-76
2022/01/07 08:44:19;;;;;;;12.13;5.43;;;0.80;85.60;;;;;;5053042;28;20021;-75
2022/01/07 08:46:48;;;;;;;16.15;5.25;;;0.90;85.40;;;;;;5052662;28;20537;-77
2022/01/07 08:49:15;;;;;;;8.90;4.25;;;0.90;85.10;;;;;;5052623;28;20025;-76
2022/01/07 08:51:44;;;;;;;12.93;5.75;;;0.90;84.40;;;;;;5052573;28;20026;-76
2022/01/07 08:54:11;;;;;;;14.40;4.97;;;1.00;83.90;;;;;;5051573;28;20036;-76
2022/01/07 08:56:39;;;;;;;14.52;5.15;;;1.00;83.90;;;;;;5071164;28;20076;-76
2022/01/07 08:59:07;;;;;;;15.10;5.13;;;1.00;83.20;;;;;;5055221;28;20057;-77
2022/01/07 09:01:35;;;;;;;16.42;4.65;;;1.00;83.30;;;;;;5071911;28;20025;-76
2022/01/07 09:04:04;;;;;;;15.07;5.30;;;1.00;83.50;;;;;;5071735;28;20025;-78
2022/01/07 09:06:29;;;;;;;17.45;5.13;;;1.00;83.10;;;;;;5071847;28;20132;-76
2022/01/07 09:09:03;;;;;;;8.88;4.60;;;1.00;83.00;;;;;;5055264;28;20450;-75
2022/01/07 09:11:30;;;;;;;10.57;5.10;;;1.00;83.00;;;;;;5056617;28;20031;-76
2022/01/07 09:13:59;;;;;;;9.43;4.40;;;1.00;83.00;;;;;;5056531;28;20021;-78
2022/01/07 09:16:27;;;;;;;10.50;4.93;;;1.00;83.60;;;;;;5056386;28;20163;-76
2022/01/07 09:18:53;;;;;;;10.90;5.18;;;1.10;83.20;;;;;;5054988;28;20568;-74
2022/01/07 09:21:20;;;;;;;11.30;4.65;;;1.20;82.70;;;;;;5054881;28;20389;-75
2022/01/07 09:23:47;;;;;;;10.50;4.93;;;1.20;82.70;;;;;;5054894;28;20025;-76
2022/01/07 09:26:15;;;;;;;9.82;4.55;;;1.20;82.50;;;;;;5071439;28;20117;-75
2022/01/07 09:28:43;;;;;;;10.23;4.03;;;1.20;82.60;;;;;;5056223;28;20029;-74
2022/01/07 09:31:11;;;;;;;9.10;4.63;;;1.20;82.90;;;;;;5056279;28;20100;-76
2022/01/07 09:33:38;;;;;;;11.95;5.05;;;1.30;83.00;;;;;;5056147;28;20013;-75
2022/01/07 09:36:07;;;;;;;7.72;4.10;;;1.30;82.80;;;;;;5053572;28;20037;-74
2022/01/07 09:38:37;;;;;;;9.88;4.18;;;1.40;82.70;;;;;;5067679;28;20044;-75
2022/01/07 09:41:07;;;;;;;11.98;5.25;;;1.40;82.70;;;;;;5052331;28;20028;-75
2022/01/07 09:43:33;;;;;;;13.93;4.50;;;1.40;82.80;;;;;;5050622;28;20082;-76
2022/01/07 09:46:00;;;;;;;10.40;4.78;;;1.50;82.60;;;;;;5055869;28;20041;-76
2022/01/07 09:48:27;;;;;;;10.00;4.82;;;1.50;82.50;;;;;;5054513;28;20025;-75
2022/01/07 09:50:54;;;;;;;11.45;3.97;;;1.60;83.00;;;;;;5055023;28;20036;-79
2022/01/07 09:53:23;;;;;;;8.10;3.60;;;1.70;82.40;;;;;;5055783;28;20466;-77
2022/01/07 09:55:52;;;;;;;9.40;4.45;;;1.90;81.70;;;;;;5055473;28;20102;-77
2022/01/07 09:58:19;;;;;;;10.48;3.95;;;2.10;80.60;;;;;;5055990;28;20493;-78
2022/01/07 10:00:46;;;;;;;8.20;4.00;;;2.30;79.90;;;;;;5071474;28;20021;-77
2022/01/07 10:03:16;;;;;;;11.65;4.95;;;2.30;78.30;;;;;;5054152;28;20410;-77
2022/01/07 10:06:14;;;;;;;12.15;4.40;;;2.40;78.80;;;;;;5070737;28;20179;-78
2022/01/07 10:08:41;;;;;;;10.18;4.50;;;2.50;78.20;;;;;;5055519;28;20029;-77
2022/01/07 10:11:19;;;;;;;8.27;4.10;;;2.50;77.10;;;;;;5055210;28;20021;-78
2022/01/07 10:13:48;;;;;;;13.20;4.20;;;2.60;76.10;;;;;;5054809;28;20025;-79
2022/01/07 10:16:26;;;;;;;11.38;4.38;;;2.50;75.90;;;;;;5054311;28;20470;-81
2022/01/07 10:18:51;;;;;;;11.07;4.70;;;2.60;76.10;;;;;;5053195;28;20478;-81
2022/01/07 10:21:19;;;;;;;9.00;4.57;;;2.70;76.00;;;;;;5053863;28;20115;-81
2022/01/07 10:24:02;;;;;;;11.25;4.80;;;2.70;75.30;;;;;;5053507;28;20028;-80
2022/01/07 10:26:29;;;;;;;12.43;4.90;;;2.80;74.40;;;;;;5054251;28;20053;-78
2022/01/07 10:28:55;;;;;;;9.35;4.50;;;2.80;74.10;;;;;;5069256;28;20077;-78
2022/01/07 10:31:23;;;;;;;7.13;3.63;;;2.80;73.80;;;;;;5050895;28;20447;-78
2022/01/07 10:33:50;;;;;;;11.25;4.00;;;2.80;74.10;;;;;;5051654;28;20048;-78
2022/01/07 10:36:20;;;;;;;8.80;5.10;;;2.90;74.20;;;;;;5051623;28;20025;-77
2022/01/07 10:38:57;;;;;;;9.02;4.45;;;2.90;74.50;;;;;;5068697;28;20025;-78
2022/01/07 10:41:22;;;;;;;12.32;4.82;;;3.00;74.30;;;;;;5053334;28;20110;-79
2022/01/07 10:43:52;;;;;;;9.00;4.35;;;3.10;75.10;;;;;;5069321;28;20462;-78
2022/01/07 10:46:32;;;;;;;7.78;4.00;;;3.20;73.10;;;;;;5052885;28;20028;-77
2022/01/07 10:49:05;;;;;;;9.63;4.60;;;3.20;72.80;;;;;;5054747;28;20104;-77
2022/01/07 10:51:36;;;;;;;10.55;4.03;;;3.30;72.90;;;;;;5069958;28;20017;-77
2022/01/07 10:54:06;;;;;;;10.50;4.47;;;3.20;72.10;;;;;;5054001;28;20021;-77
2022/01/07 10:56:35;;;;;;;8.02;3.33;;;3.20;72.50;;;;;;5069418;28;20055;-77
2022/01/07 10:59:17;;;;;;;7.35;3.67;;;3.10;71.90;;;;;;5054179;28;20036;-78
2022/01/07 11:02:05;;;;;;;9.60;4.63;;;3.10;71.90;;;;;;5053008;28;20040;-78
2022/01/07 11:04:32;;;;;;;13.23;4.00;;;3.00;72.20;;;;;;5039380;28;20275;-77
2022/01/07 11:07:06;;;;;;;8.25;3.25;;;2.90;72.20;;;;;;5054444;28;20029;-77
2022/01/07 11:09:33;;;;;;;10.18;4.63;;;2.80;72.80;;;;;;5054470;28;20028;-77
2022/01/07 11:12:06;;;;;;;11.20;4.13;;;2.80;72.20;;;;;;5055104;28;20028;-77
2022/01/07 11:14:47;;;;;;;9.95;3.60;;;2.70;72.80;;;;;;5053665;28;20071;-77
2022/01/07 11:17:31;;;;;;;10.40;3.50;;;2.70;73.30;;;;;;5055331;28;20032;-77
2022/01/07 11:20:03;;;;;;;9.73;4.00;;;2.70;73.50;;;;;;5054240;28;20054;-78
2022/01/07 11:22:31;;;;;;;9.48;3.83;;;2.70;73.70;;;;;;5054013;28;20037;-78
2022/01/07 11:25:08;;;;;;;8.68;3.95;;;2.70;74.00;;;;;;5052743;28;20055;-77
2022/01/07 11:28:00;;;;;;;8.52;4.03;;;2.70;74.00;;;;;;5069620;28;20036;-78
2022/01/07 11:30:38;;;;;;;8.48;4.22;;;2.80;74.40;;;;;;5052142;28;20532;-77
2022/01/07 11:33:22;;;;;;;6.00;3.95;;;2.90;74.20;;;;;;5053755;28;20021;-76
2022/01/07 11:35:49;;;;;;;9.05;3.75;;;3.00;74.70;;;;;;5069038;28;20036;-78
2022/01/07 11:38:31;;;;;;;8.15;3.72;;;3.10;74.30;;;;;;5052406;28;20021;-77
2022/01/07 11:40:59;;;;;;;6.55;3.63;;;3.20;73.40;;;;;;5068322;28;20502;-78
2022/01/07 11:43:35;;;;;;;8.45;4.90;;;3.30;73.10;;;;;;5068998;28;20017;-78
2022/01/07 11:46:28;;;;;;;7.63;4.63;;;3.50;73.50;;;;;;5052289;28;20128;-78
2022/01/07 11:49:04;;;;;;;11.35;4.75;;;3.60;73.40;;;;;;5052181;28;20398;-77
2022/01/07 11:51:54;;;;;;;9.80;5.10;;;3.70;72.30;;;;;;5068758;28;20102;-79
2022/01/07 11:54:22;;;;;;;10.05;4.72;;;3.90;72.30;;;;;;5049958;28;20097;-77
2022/01/07 11:56:50;;;;;;;9.05;4.82;;;4.00;70.90;;;;;;5069814;28;20040;-78
2022/01/07 11:59:25;;;;;;;11.90;5.70;;;4.10;70.80;;;;;;5056865;28;20063;-78
2022/01/07 12:02:05;;;;;;;10.95;5.57;;;4.10;71.50;;;;;;5056819;28;20279;-82
2022/01/07 12:04:40;;;;;;;14.25;5.15;;;4.20;70.60;;;;;;5059681;28;20029;-80
2022/01/07 12:07:46;;;;;;;10.40;4.97;;;4.30;69.90;;;;;;5054022;28;20128;-79
2022/01/07 12:10:14;;;;;;;17.10;5.60;;;4.40;69.80;;;;;;5051782;28;20025;-77
2022/01/07 12:12:42;;;;;;;13.30;6.75;;;4.40;69.80;;;;;;5052781;28;20017;-75
2022/01/07 12:15:08;;;;;;;14.30;6.40;;;4.40;69.20;;;;;;5054088;28;20028;-81
2022/01/07 12:17:35;;;;;;;19.45;6.57;;;4.40;69.50;;;;;;5051919;28;20021;-81
2022/01/07 12:20:43;;;;;;;13.52;5.85;;;4.40;69.60;;;;;;5053446;28;20371;-81
2022/01/07 12:23:26;;;;;;;12.73;5.25;;;4.40;70.00;;;;;;5040899;28;20071;-80
2022/01/07 12:25:54;;;;;;;14.93;6.45;;;4.40;70.40;;;;;;5053143;28;20386;-80
2022/01/07 12:28:29;;;;;;;11.80;5.97;;;4.50;70.30;;;;;;5052891;28;20083;-81
2022/01/07 12:31:16;;;;;;;13.30;5.88;;;4.50;70.00;;;;;;5056968;28;20048;-82
2022/01/07 12:33:55;;;;;;;17.80;5.88;;;4.50;68.90;;;;;;5071856;28;20090;-81
2022/01/07 12:36:35;;;;;;;12.10;5.80;;;4.40;69.60;;;;;;5055665;28;20474;-80
2022/01/07 12:39:09;;;;;;;13.52;5.50;;;4.40;69.20;;;;;;5057281;28;20493;-78
2022/01/07 12:41:37;;;;;;;8.70;5.93;;;4.40;69.10;;;;;;5068512;28;20033;-78
2022/01/07 12:44:11;;;;;;;11.18;6.40;;;4.40;68.70;;;;;;5055678;28;20037;-77
2022/01/07 12:46:38;;;;;;;13.95;5.35;;;4.40;69.00;;;;;;5055507;28;20025;-77
2022/01/07 12:49:05;;;;;;;17.60;5.18;;;4.40;69.40;;;;;;5056230;28;20021;-79
2022/01/07 12:51:32;;;;;;;16.70;5.93;;;4.50;69.60;;;;;;5055611;28;20052;-82
2022/01/07 12:54:06;;;;;;;13.77;5.95;;;4.50;69.80;;;;;;5056405;28;20028;-79
2022/01/07 12:56:34;;;;;;;13.77;6.10;;;4.50;69.80;;;;;;5057558;28;20059;-85
2022/01/07 12:59:29;;;;;;;14.15;6.75;;;4.40;69.90;;;;;;5056388;28;20025;-83
2022/01/07 13:02:00;;;;;;;11.25;6.07;;;4.40;70.10;;;;;;5038025;28;20029;-82
2022/01/07 13:04:28;;;;;;;11.48;5.47;;;4.40;69.90;;;;;;5046886;28;20017;-82
2022/01/07 13:07:00;;;;;;;15.23;6.68;;;4.40;70.90;;;;;;5073167;28;20110;-81